CXA126 ZSJN-ZYHB
Flight info
| Callsign | CXA126 |
|---|---|
| Flight time | N/A |
| Altitude | 33100 |
| Route | BASOV7Y BASOV W4 REPOL V42 GUMED W5 MAKNO W106 UDETI A588 NULRA W206 MAGBI W656 ISLUK W629 LARUN LAR29A |
| Aircraft | B738/M-SDE2E3FGHIRWXY/LB1 |
Departure
| Time | 2026-04-23 12:58 |
|---|---|
| Airport | Jinan Yaoqiang International Airport (ZSJN) |
Arrival
| Time | N/A |
|---|---|
| Airport | Harbin Taiping International Airport (ZYHB) |
| Time | Latitude | Longitude | Altitude | Speed | Heading |
|---|---|---|---|---|---|
| 2026-04-23 12:29 | 36.84821 | 117.20976 | 76 ft | 0 kts | 205° |
| 2026-04-23 12:46 | 36.84839 | 117.20987 | 83 ft | 4 kts | 203° |
| 2026-04-23 12:46 | 36.84859 | 117.20997 | 87 ft | 4 kts | 198° |
| 2026-04-23 12:47 | 36.84884 | 117.20999 | 83 ft | 4 kts | 159° |
| 2026-04-23 12:47 | 36.84907 | 117.20983 | 81 ft | 3 kts | 145° |
| 2026-04-23 12:47 | 36.84909 | 117.20981 | 84 ft | 1 kts | 145° |
| 2026-04-23 12:49 | 36.84907 | 117.20983 | 79 ft | 1 kts | 145° |
| 2026-04-23 12:49 | 36.84893 | 117.21001 | 81 ft | 5 kts | 128° |
| 2026-04-23 12:49 | 36.84879 | 117.21055 | 79 ft | 9 kts | 96° |
| 2026-04-23 12:50 | 36.84843 | 117.21126 | 84 ft | 11 kts | 124° |
| 2026-04-23 12:50 | 36.84810 | 117.21216 | 81 ft | 9 kts | 110° |
| 2026-04-23 12:50 | 36.84841 | 117.21272 | 83 ft | 11 kts | 13° |
| 2026-04-23 12:50 | 36.84858 | 117.21314 | 83 ft | 5 kts | 90° |
| 2026-04-23 12:51 | 36.84869 | 117.21357 | 81 ft | 7 kts | 42° |
| 2026-04-23 12:51 | 36.84930 | 117.21370 | 83 ft | 12 kts | 1° |
| 2026-04-23 12:51 | 36.85036 | 117.21370 | 79 ft | 18 kts | 360° |
| 2026-04-23 12:51 | 36.85182 | 117.21370 | 81 ft | 24 kts | 359° |
| 2026-04-23 12:52 | 36.85358 | 117.21369 | 81 ft | 27 kts | 359° |
| 2026-04-23 12:52 | 36.85543 | 117.21369 | 82 ft | 26 kts | 0° |
| 2026-04-23 12:52 | 36.85718 | 117.21371 | 83 ft | 24 kts | 360° |
| 2026-04-23 12:52 | 36.85880 | 117.21371 | 83 ft | 23 kts | 0° |
| 2026-04-23 12:53 | 36.86044 | 117.21371 | 83 ft | 25 kts | 360° |
| 2026-04-23 12:53 | 36.86230 | 117.21370 | 82 ft | 28 kts | 360° |
| 2026-04-23 12:53 | 36.86419 | 117.21371 | 82 ft | 26 kts | 360° |
| 2026-04-23 12:53 | 36.86597 | 117.21371 | 83 ft | 25 kts | 0° |
| 2026-04-23 12:54 | 36.86762 | 117.21371 | 82 ft | 23 kts | 360° |
| 2026-04-23 12:54 | 36.86919 | 117.21371 | 83 ft | 22 kts | 360° |
| 2026-04-23 12:54 | 36.87073 | 117.21370 | 84 ft | 22 kts | 0° |
| 2026-04-23 12:54 | 36.87215 | 117.21370 | 84 ft | 18 kts | 360° |
| 2026-04-23 12:55 | 36.87325 | 117.21377 | 80 ft | 10 kts | 22° |
| 2026-04-23 12:55 | 36.87340 | 117.21447 | 86 ft | 6 kts | 91° |
| 2026-04-23 12:55 | 36.87340 | 117.21458 | 82 ft | 0 kts | 91° |
| 2026-04-23 12:56 | 36.87340 | 117.21460 | 82 ft | 0 kts | 91° |
| 2026-04-23 12:56 | 36.87340 | 117.21476 | 83 ft | 4 kts | 91° |
| 2026-04-23 12:56 | 36.87340 | 117.21505 | 85 ft | 6 kts | 91° |
| 2026-04-23 12:57 | 36.87338 | 117.21565 | 87 ft | 8 kts | 99° |
| 2026-04-23 12:57 | 36.87301 | 117.21595 | 89 ft | 0 kts | 180° |
| 2026-04-23 12:57 | 36.87298 | 117.21595 | 88 ft | 1 kts | 180° |
| 2026-04-23 12:57 | 36.87191 | 117.21595 | 87 ft | 45 kts | 180° |
| 2026-04-23 12:58 | 36.86634 | 117.21595 | 86 ft | 113 kts | 180° |
| 2026-04-23 12:58 | 36.85660 | 117.21582 | 123 ft | 162 kts | 181° |
| 2026-04-23 12:58 | 36.84490 | 117.21582 | 691 ft | 171 kts | 180° |
| 2026-04-23 12:58 | 36.83337 | 117.21624 | 1649 ft | 155 kts | 181° |
| 2026-04-23 12:59 | 36.82277 | 117.21843 | 2356 ft | 167 kts | 156° |
| 2026-04-23 12:59 | 36.81483 | 117.23106 | 2557 ft | 210 kts | 109° |
| 2026-04-23 12:59 | 36.81440 | 117.25058 | 2756 ft | 239 kts | 89° |
| 2026-04-23 12:59 | 36.81560 | 117.27188 | 3272 ft | 249 kts | 90° |
| 2026-04-23 13:00 | 36.81637 | 117.29337 | 4160 ft | 246 kts | 91° |
| 2026-04-23 13:00 | 36.81694 | 117.31474 | 4964 ft | 249 kts | 90° |
| 2026-04-23 13:00 | 36.81796 | 117.33650 | 5671 ft | 255 kts | 79° |
| 2026-04-23 13:00 | 36.82594 | 117.35628 | 6356 ft | 262 kts | 45° |
| 2026-04-23 13:01 | 36.84157 | 117.36830 | 6828 ft | 274 kts | 12° |
| 2026-04-23 13:01 | 36.86057 | 117.37006 | 7410 ft | 280 kts | 359° |
| 2026-04-23 13:01 | 36.88021 | 117.36989 | 8131 ft | 284 kts | 358° |
| 2026-04-23 13:01 | 36.90008 | 117.36956 | 8920 ft | 286 kts | 359° |
| 2026-04-23 13:02 | 36.92001 | 117.36929 | 9709 ft | 288 kts | 359° |
| 2026-04-23 13:02 | 36.94021 | 117.36911 | 10351 ft | 295 kts | 359° |
| 2026-04-23 13:02 | 36.96154 | 117.36901 | 10535 ft | 318 kts | 359° |
| 2026-04-23 13:02 | 36.98439 | 117.36896 | 10708 ft | 339 kts | 359° |
| 2026-04-23 13:03 | 37.00872 | 117.36896 | 10879 ft | 359 kts | 359° |
| 2026-04-23 13:03 | 37.03402 | 117.36900 | 11306 ft | 368 kts | 359° |
| 2026-04-23 13:03 | 37.05974 | 117.36906 | 12033 ft | 369 kts | 359° |
| 2026-04-23 13:03 | 37.08547 | 117.36910 | 12758 ft | 371 kts | 359° |
| 2026-04-23 13:04 | 37.11146 | 117.36915 | 13434 ft | 375 kts | 360° |
| 2026-04-23 13:04 | 37.13752 | 117.37098 | 14171 ft | 376 kts | 7° |
| 2026-04-23 13:04 | 37.16338 | 117.37615 | 14837 ft | 379 kts | 9° |
| 2026-04-23 13:04 | 37.18944 | 117.38223 | 15480 ft | 383 kts | 10° |
| 2026-04-23 13:05 | 37.21572 | 117.38827 | 16132 ft | 386 kts | 9° |
| 2026-04-23 13:05 | 37.24226 | 117.39399 | 16786 ft | 388 kts | 9° |
| 2026-04-23 13:05 | 37.26867 | 117.39940 | 17432 ft | 391 kts | 8° |
| 2026-04-23 13:05 | 37.29573 | 117.40488 | 18068 ft | 394 kts | 9° |
| 2026-04-23 13:06 | 37.34342 | 117.43800 | 19136 ft | 406 kts | 47° |
| 2026-04-23 13:06 | 37.35915 | 117.46763 | 19680 ft | 412 kts | 63° |
| 2026-04-23 13:06 | 37.36736 | 117.50230 | 20189 ft | 418 kts | 78° |
| 2026-04-23 13:07 | 37.37204 | 117.53861 | 20734 ft | 421 kts | 79° |
| 2026-04-23 13:07 | 37.37647 | 117.57517 | 21200 ft | 425 kts | 79° |
| 2026-04-23 13:07 | 37.38091 | 117.61198 | 21668 ft | 428 kts | 79° |
| 2026-04-23 13:07 | 37.38547 | 117.64918 | 22148 ft | 431 kts | 79° |
| 2026-04-23 13:08 | 37.39014 | 117.68657 | 22618 ft | 434 kts | 79° |
| 2026-04-23 13:08 | 37.39489 | 117.72413 | 23079 ft | 437 kts | 79° |
| 2026-04-23 13:08 | 37.39970 | 117.76191 | 23528 ft | 440 kts | 79° |
| 2026-04-23 13:08 | 37.40458 | 117.80011 | 23898 ft | 443 kts | 79° |
| 2026-04-23 13:09 | 37.40948 | 117.83846 | 24287 ft | 445 kts | 79° |
| 2026-04-23 13:09 | 37.41437 | 117.87691 | 24670 ft | 446 kts | 79° |
| 2026-04-23 13:09 | 37.41927 | 117.91561 | 25036 ft | 449 kts | 79° |
| 2026-04-23 13:09 | 37.42418 | 117.95442 | 25392 ft | 451 kts | 79° |
| 2026-04-23 13:10 | 37.42909 | 117.99342 | 25737 ft | 453 kts | 79° |
| 2026-04-23 13:10 | 37.43403 | 118.03271 | 26102 ft | 454 kts | 79° |
| 2026-04-23 13:10 | 37.43895 | 118.07195 | 26493 ft | 455 kts | 79° |
| 2026-04-23 13:10 | 37.44386 | 118.11131 | 26810 ft | 457 kts | 79° |
| 2026-04-23 13:11 | 37.44882 | 118.15101 | 27112 ft | 460 kts | 79° |
| 2026-04-23 13:11 | 37.45378 | 118.19095 | 27416 ft | 462 kts | 79° |
| 2026-04-23 13:11 | 37.45875 | 118.23091 | 27720 ft | 464 kts | 79° |
| 2026-04-23 13:11 | 37.46380 | 118.27111 | 28020 ft | 465 kts | 79° |
| 2026-04-23 13:12 | 37.46890 | 118.31134 | 28368 ft | 466 kts | 79° |
| 2026-04-23 13:12 | 37.47399 | 118.35162 | 28832 ft | 464 kts | 79° |
| 2026-04-23 13:12 | 37.47904 | 118.39160 | 29327 ft | 462 kts | 79° |
| 2026-04-23 13:12 | 37.48405 | 118.43151 | 29679 ft | 462 kts | 79° |
| 2026-04-23 13:13 | 37.48907 | 118.47158 | 30012 ft | 463 kts | 79° |
| 2026-04-23 13:13 | 37.49405 | 118.51153 | 30366 ft | 462 kts | 79° |
| 2026-04-23 13:13 | 37.49904 | 118.55169 | 30666 ft | 462 kts | 79° |
| 2026-04-23 13:13 | 37.50401 | 118.59174 | 30900 ft | 464 kts | 79° |
| 2026-04-23 13:14 | 37.50891 | 118.63141 | 31138 ft | 466 kts | 79° |
| 2026-04-23 13:14 | 37.51386 | 118.67163 | 31448 ft | 466 kts | 79° |
| 2026-04-23 13:14 | 37.51883 | 118.71201 | 31646 ft | 468 kts | 79° |
| 2026-04-23 13:14 | 37.52383 | 118.75273 | 31837 ft | 471 kts | 79° |
| 2026-04-23 13:15 | 37.52872 | 118.79354 | 32128 ft | 471 kts | 81° |
| 2026-04-23 13:15 | 37.53259 | 118.83458 | 32427 ft | 471 kts | 82° |
| 2026-04-23 13:15 | 37.53572 | 118.87577 | 32669 ft | 473 kts | 83° |
| 2026-04-23 13:15 | 37.53858 | 118.91715 | 32912 ft | 474 kts | 83° |
| 2026-04-23 13:16 | 37.54141 | 118.95851 | 33101 ft | 476 kts | 83° |
| 2026-04-23 13:16 | 37.54736 | 119.04219 | 33081 ft | 480 kts | 83° |
| 2026-04-23 13:17 | 37.55351 | 119.12556 | 33087 ft | 476 kts | 83° |
| 2026-04-23 13:17 | 37.55962 | 119.20827 | 33073 ft | 473 kts | 83° |
| 2026-04-23 13:18 | 37.56561 | 119.29014 | 33083 ft | 471 kts | 83° |
| 2026-04-23 13:18 | 37.57155 | 119.37226 | 33090 ft | 470 kts | 83° |
| 2026-04-23 13:19 | 37.57743 | 119.45443 | 33091 ft | 471 kts | 83° |
| 2026-04-23 13:19 | 37.58328 | 119.53691 | 33082 ft | 473 kts | 83° |
| 2026-04-23 13:20 | 37.58846 | 119.61971 | 33089 ft | 475 kts | 84° |
| 2026-04-23 13:20 | 37.60051 | 119.70124 | 33105 ft | 473 kts | 68° |
| 2026-04-23 13:21 | 37.63071 | 119.77447 | 33112 ft | 471 kts | 55° |
| 2026-04-23 13:21 | 37.66662 | 119.84357 | 33089 ft | 472 kts | 54° |
| 2026-04-23 13:22 | 37.70221 | 119.91327 | 33089 ft | 473 kts | 55° |
| 2026-04-23 13:22 | 37.73738 | 119.98362 | 33094 ft | 473 kts | 56° |
| 2026-04-23 13:23 | 37.77193 | 120.05348 | 33087 ft | 471 kts | 57° |
| 2026-04-23 13:23 | 37.80560 | 120.12431 | 33090 ft | 469 kts | 57° |
| 2026-04-23 13:24 | 37.83904 | 120.19512 | 33099 ft | 468 kts | 57° |
| 2026-04-23 13:24 | 37.87243 | 120.26561 | 33112 ft | 467 kts | 57° |
| 2026-04-23 13:25 | 37.90578 | 120.33602 | 33103 ft | 466 kts | 57° |
| 2026-04-23 13:25 | 37.93905 | 120.40642 | 33098 ft | 465 kts | 57° |
| 2026-04-23 13:26 | 37.97197 | 120.47623 | 33095 ft | 465 kts | 57° |
| 2026-04-23 13:26 | 38.00678 | 120.54494 | 33100 ft | 462 kts | 47° |
| 2026-04-23 13:27 | 38.05537 | 120.59710 | 33101 ft | 456 kts | 28° |
| 2026-04-23 13:27 | 38.11225 | 120.63214 | 33104 ft | 454 kts | 23° |
| 2026-04-23 13:28 | 38.16933 | 120.66658 | 33109 ft | 454 kts | 25° |
| 2026-04-23 13:28 | 38.22520 | 120.70373 | 33092 ft | 454 kts | 33° |
| 2026-04-23 13:29 | 38.27125 | 120.75874 | 33104 ft | 457 kts | 51° |
| 2026-04-23 13:29 | 38.30568 | 120.82674 | 33103 ft | 457 kts | 57° |
| 2026-04-23 13:30 | 38.33868 | 120.89523 | 33107 ft | 456 kts | 57° |
| 2026-04-23 13:30 | 38.37223 | 120.96370 | 33102 ft | 454 kts | 56° |
| 2026-04-23 13:31 | 38.40586 | 121.03184 | 33106 ft | 454 kts | 56° |
| 2026-04-23 13:31 | 38.43941 | 121.09992 | 33105 ft | 454 kts | 56° |
| 2026-04-23 13:32 | 38.46919 | 121.17070 | 33099 ft | 455 kts | 69° |
| 2026-04-23 13:32 | 38.48716 | 121.24831 | 33097 ft | 455 kts | 72° |
| 2026-04-23 13:33 | 38.50434 | 121.32615 | 33098 ft | 455 kts | 72° |
| 2026-04-23 13:33 | 38.52186 | 121.40387 | 33097 ft | 456 kts | 72° |
| 2026-04-23 13:34 | 38.53958 | 121.48160 | 33103 ft | 456 kts | 72° |
| 2026-04-23 13:34 | 38.55732 | 121.55945 | 33089 ft | 456 kts | 72° |
| 2026-04-23 13:35 | 38.57499 | 121.63727 | 33101 ft | 456 kts | 72° |
| 2026-04-23 13:35 | 38.59262 | 121.71525 | 33096 ft | 457 kts | 72° |
| 2026-04-23 13:36 | 38.61010 | 121.79283 | 33097 ft | 457 kts | 72° |
| 2026-04-23 13:36 | 38.62767 | 121.87109 | 33099 ft | 458 kts | 72° |
| 2026-04-23 13:37 | 38.64524 | 121.94963 | 33113 ft | 460 kts | 72° |
| 2026-04-23 13:37 | 38.66282 | 122.02847 | 33119 ft | 461 kts | 72° |
| 2026-04-23 13:38 | 38.68060 | 122.10745 | 33105 ft | 463 kts | 69° |
| 2026-04-23 13:38 | 38.69455 | 122.14437 | 33116 ft | 460 kts | 54° |
| 2026-04-23 13:38 | 38.71493 | 122.17581 | 33121 ft | 458 kts | 42° |
| 2026-04-23 13:38 | 38.74007 | 122.20042 | 33118 ft | 456 kts | 30° |
| 2026-04-23 13:39 | 38.76732 | 122.22127 | 33123 ft | 456 kts | 29° |
| 2026-04-23 13:39 | 38.82189 | 122.26285 | 33106 ft | 456 kts | 30° |
| 2026-04-23 13:40 | 38.87595 | 122.30543 | 33115 ft | 455 kts | 31° |
| 2026-04-23 13:40 | 38.92954 | 122.34803 | 33110 ft | 452 kts | 31° |
| 2026-04-23 13:41 | 38.98270 | 122.39018 | 33111 ft | 451 kts | 31° |
| 2026-04-23 13:41 | 39.03605 | 122.43255 | 33118 ft | 450 kts | 31° |
| 2026-04-23 13:42 | 39.08935 | 122.47497 | 33109 ft | 449 kts | 31° |
| 2026-04-23 13:42 | 39.14241 | 122.51729 | 33116 ft | 448 kts | 31° |
| 2026-04-23 13:43 | 39.19538 | 122.55963 | 33115 ft | 448 kts | 31° |
| 2026-04-23 13:43 | 39.24828 | 122.60197 | 33111 ft | 447 kts | 31° |
| 2026-04-23 13:44 | 39.30161 | 122.64323 | 33111 ft | 447 kts | 28° |
| 2026-04-23 13:44 | 39.35622 | 122.68156 | 33116 ft | 446 kts | 27° |
| 2026-04-23 13:45 | 39.40171 | 122.71330 | 33109 ft | 447 kts | 27° |
| 2026-04-23 13:45 | 39.46512 | 122.75822 | 33114 ft | 447 kts | 28° |
| 2026-04-23 13:46 | 39.51960 | 122.79722 | 33114 ft | 447 kts | 28° |
| 2026-04-23 13:46 | 39.56491 | 122.82974 | 33109 ft | 448 kts | 28° |
| 2026-04-23 13:47 | 39.61936 | 122.86889 | 33115 ft | 448 kts | 28° |
| 2026-04-23 13:47 | 39.67385 | 122.90812 | 33112 ft | 448 kts | 27° |
| 2026-04-23 13:48 | 39.72840 | 122.94746 | 33108 ft | 448 kts | 27° |
| 2026-04-23 13:48 | 39.78292 | 122.98686 | 33114 ft | 448 kts | 28° |
| 2026-04-23 13:49 | 39.83745 | 123.02633 | 33113 ft | 449 kts | 27° |
| 2026-04-23 13:49 | 39.89205 | 123.06593 | 33111 ft | 449 kts | 27° |
| 2026-04-23 13:50 | 39.94653 | 123.10552 | 33111 ft | 449 kts | 27° |
| 2026-04-23 13:50 | 40.00119 | 123.14531 | 33109 ft | 449 kts | 27° |
| 2026-04-23 13:51 | 40.05578 | 123.18509 | 33115 ft | 449 kts | 27° |
| 2026-04-23 13:51 | 40.11056 | 123.22450 | 33107 ft | 450 kts | 27° |
| 2026-04-23 13:52 | 40.16544 | 123.26386 | 33105 ft | 450 kts | 27° |
| 2026-04-23 13:52 | 40.22032 | 123.30336 | 33106 ft | 450 kts | 27° |
| 2026-04-23 13:53 | 40.27516 | 123.34296 | 33105 ft | 450 kts | 27° |
| 2026-04-23 13:53 | 40.33001 | 123.38266 | 33108 ft | 450 kts | 27° |
| 2026-04-23 13:54 | 40.38486 | 123.42242 | 33104 ft | 450 kts | 27° |
| 2026-04-23 13:54 | 40.43933 | 123.46199 | 33107 ft | 451 kts | 27° |